Search for airport 
image banner adimage banner adimage banner ad
image banner ad

82CA - Sce Moorpark Substation

Located in Moorpark, United States

ICAO - 82CA, IATA -

Data provided by Airmate  

General information

Coordinates: N34°16'55" W118°54'16"
Elevation is 470 feet MSL.
Magnetic variation is 14° East
View others Airports in California

Operational data

Special qualification required
Current time UTC:
Current local time:
Weather at : KCMA - Camarillo ( 19 km )
METAR: KCMA 211255Z AUTO 14003KT 9SM OVC008 18/14 A2996 RMK AO2 SLP153 T01780139
TAF: KCMA 211124Z 2112/2212 VRB03KT P6SM OVC008 FM211800 23006KT P6SM BKN011 FM212000 24009KT P6SM SCT015 FM220400 VRB03KT 5SM BR OVC008 FM220700 VRB03KT 5SM BR OVC005
View NOTAMs / SUP AIP / TFR affecting this airport [VIEW]
Communications frequencies: [VIEW]

Runways:

Airport contact information

Address: Moorpark United States

Satellite view of 82CA